sensor_id;sensor_type;location;lat;lon;timestamp;P1;durP1;ratioP1;P2;durP2;ratioP2
13981;SDS011;7065;50.880;5.502;2022-09-30T00:01:39;7.50;;;6.32;;
13981;SDS011;7065;50.880;5.502;2022-09-30T00:04:05;8.15;;;7.35;;
13981;SDS011;7065;50.880;5.502;2022-09-30T00:06:33;9.65;;;8.65;;
13981;SDS011;7065;50.880;5.502;2022-09-30T00:08:59;8.95;;;8.05;;
13981;SDS011;7065;50.880;5.502;2022-09-30T00:11:29;10.65;;;8.52;;
13981;SDS011;7065;50.880;5.502;2022-09-30T00:13:57;9.18;;;8.23;;
13981;SDS011;7065;50.880;5.502;2022-09-30T00:16:24;10.48;;;8.02;;
13981;SDS011;7065;50.880;5.502;2022-09-30T00:18:53;11.50;;;7.57;;
13981;SDS011;7065;50.880;5.502;2022-09-30T00:21:19;10.25;;;7.25;;
13981;SDS011;7065;50.880;5.502;2022-09-30T00:23:45;7.65;;;6.93;;
13981;SDS011;7065;50.880;5.502;2022-09-30T00:26:15;7.38;;;6.68;;
13981;SDS011;7065;50.880;5.502;2022-09-30T00:28:43;5.88;;;5.35;;
13981;SDS011;7065;50.880;5.502;2022-09-30T00:31:11;6.22;;;5.63;;
13981;SDS011;7065;50.880;5.502;2022-09-30T00:33:38;5.97;;;5.40;;
13981;SDS011;7065;50.880;5.502;2022-09-30T00:36:05;6.40;;;5.60;;
13981;SDS011;7065;50.880;5.502;2022-09-30T00:38:31;5.97;;;5.47;;
13981;SDS011;7065;50.880;5.502;2022-09-30T00:40:57;9.23;;;7.55;;
13981;SDS011;7065;50.880;5.502;2022-09-30T00:43:38;10.57;;;8.52;;
13981;SDS011;7065;50.880;5.502;2022-09-30T00:46:19;11.25;;;8.45;;
13981;SDS011;7065;50.880;5.502;2022-09-30T00:48:46;9.30;;;8.30;;
13981;SDS011;7065;50.880;5.502;2022-09-30T00:51:18;9.50;;;8.13;;
13981;SDS011;7065;50.880;5.502;2022-09-30T00:53:51;11.15;;;8.95;;
13981;SDS011;7065;50.880;5.502;2022-09-30T00:56:28;10.20;;;9.10;;
13981;SDS011;7065;50.880;5.502;2022-09-30T00:59:17;12.10;;;10.65;;
13981;SDS011;7065;50.880;5.502;2022-09-30T01:01:48;11.15;;;9.98;;
13981;SDS011;7065;50.880;5.502;2022-09-30T01:04:14;12.02;;;10.13;;
13981;SDS011;7065;50.880;5.502;2022-09-30T01:06:44;10.15;;;9.10;;
13981;SDS011;7065;50.880;5.502;2022-09-30T01:09:11;10.85;;;9.75;;
13981;SDS011;7065;50.880;5.502;2022-09-30T01:11:37;11.40;;;9.82;;
13981;SDS011;7065;50.880;5.502;2022-09-30T01:14:14;11.35;;;8.82;;
13981;SDS011;7065;50.880;5.502;2022-09-30T01:19:37;13.63;;;9.93;;
13981;SDS011;7065;50.880;5.502;2022-09-30T01:27:42;10.50;;;9.40;;
13981;SDS011;7065;50.880;5.502;2022-09-30T01:36:30;14.55;;;12.38;;
13981;SDS011;7065;50.880;5.502;2022-09-30T01:49:51;17.85;;;14.82;;
13981;SDS011;7065;50.880;5.502;2022-09-30T01:52:33;18.30;;;14.68;;
13981;SDS011;7065;50.880;5.502;2022-09-30T01:55:12;18.40;;;15.52;;
13981;SDS011;7065;50.880;5.502;2022-09-30T01:57:49;17.88;;;14.70;;
13981;SDS011;7065;50.880;5.502;2022-09-30T02:00:22;18.25;;;14.95;;
13981;SDS011;7065;50.880;5.502;2022-09-30T02:02:50;17.13;;;15.27;;
13981;SDS011;7065;50.880;5.502;2022-09-30T02:08:03;19.45;;;16.73;;
13981;SDS011;7065;50.880;5.502;2022-09-30T02:10:39;17.88;;;15.15;;
13981;SDS011;7065;50.880;5.502;2022-09-30T02:13:16;16.80;;;14.90;;
13981;SDS011;7065;50.880;5.502;2022-09-30T02:15:53;18.55;;;14.40;;
13981;SDS011;7065;50.880;5.502;2022-09-30T02:18:23;19.70;;;15.88;;
13981;SDS011;7065;50.880;5.502;2022-09-30T02:20:57;20.73;;;16.98;;
13981;SDS011;7065;50.880;5.502;2022-09-30T02:23:26;24.85;;;18.67;;
13981;SDS011;7065;50.880;5.502;2022-09-30T02:26:00;21.50;;;17.67;;
13981;SDS011;7065;50.880;5.502;2022-09-30T02:28:32;22.92;;;18.83;;
13981;SDS011;7065;50.880;5.502;2022-09-30T02:31:01;27.75;;;20.00;;
13981;SDS011;7065;50.880;5.502;2022-09-30T02:33:34;25.38;;;20.23;;
13981;SDS011;7065;50.880;5.502;2022-09-30T02:39:00;24.98;;;20.30;;
13981;SDS011;7065;50.880;5.502;2022-09-30T02:41:30;28.42;;;22.40;;
13981;SDS011;7065;50.880;5.502;2022-09-30T02:44:00;30.02;;;24.35;;
13981;SDS011;7065;50.880;5.502;2022-09-30T02:49:19;27.38;;;22.70;;
13981;SDS011;7065;50.880;5.502;2022-09-30T02:54:48;30.10;;;22.25;;
13981;SDS011;7065;50.880;5.502;2022-09-30T02:57:31;24.67;;;20.20;;
13981;SDS011;7065;50.880;5.502;2022-09-30T03:00:06;27.90;;;22.40;;
13981;SDS011;7065;50.880;5.502;2022-09-30T03:02:33;26.40;;;21.15;;
13981;SDS011;7065;50.880;5.502;2022-09-30T03:04:59;25.05;;;20.40;;
13981;SDS011;7065;50.880;5.502;2022-09-30T03:07:25;21.85;;;19.42;;
13981;SDS011;7065;50.880;5.502;2022-09-30T03:09:55;20.48;;;17.20;;
13981;SDS011;7065;50.880;5.502;2022-09-30T03:15:43;27.15;;;22.50;;
13981;SDS011;7065;50.880;5.502;2022-09-30T03:21:21;30.38;;;23.50;;
13981;SDS011;7065;50.880;5.502;2022-09-30T03:24:15;25.15;;;21.08;;
13981;SDS011;7065;50.880;5.502;2022-09-30T03:27:06;31.48;;;23.13;;
13981;SDS011;7065;50.880;5.502;2022-09-30T03:29:55;29.15;;;21.58;;
13981;SDS011;7065;50.880;5.502;2022-09-30T03:32:39;27.20;;;21.80;;
13981;SDS011;7065;50.880;5.502;2022-09-30T03:46:04;29.48;;;22.10;;
13981;SDS011;7065;50.880;5.502;2022-09-30T03:48:36;27.90;;;21.33;;
13981;SDS011;7065;50.880;5.502;2022-09-30T03:51:04;24.90;;;20.17;;
13981;SDS011;7065;50.880;5.502;2022-09-30T03:53:36;29.02;;;22.50;;
13981;SDS011;7065;50.880;5.502;2022-09-30T03:56:03;26.90;;;20.98;;
13981;SDS011;7065;50.880;5.502;2022-09-30T03:58:29;24.48;;;20.15;;
13981;SDS011;7065;50.880;5.502;2022-09-30T04:00:55;25.17;;;19.52;;
13981;SDS011;7065;50.880;5.502;2022-09-30T04:03:21;25.35;;;19.70;;
13981;SDS011;7065;50.880;5.502;2022-09-30T04:05:48;27.95;;;20.92;;
13981;SDS011;7065;50.880;5.502;2022-09-30T04:08:14;23.77;;;19.27;;
13981;SDS011;7065;50.880;5.502;2022-09-30T04:10:41;28.77;;;21.42;;
13981;SDS011;7065;50.880;5.502;2022-09-30T04:13:08;31.23;;;19.60;;
13981;SDS011;7065;50.880;5.502;2022-09-30T04:15:34;26.27;;;20.38;;
13981;SDS011;7065;50.880;5.502;2022-09-30T04:18:01;28.10;;;20.10;;
13981;SDS011;7065;50.880;5.502;2022-09-30T04:20:28;21.48;;;18.02;;
13981;SDS011;7065;50.880;5.502;2022-09-30T04:23:01;23.05;;;18.27;;
13981;SDS011;7065;50.880;5.502;2022-09-30T04:25:26;21.23;;;17.60;;
13981;SDS011;7065;50.880;5.502;2022-09-30T04:27:53;20.30;;;15.75;;
13981;SDS011;7065;50.880;5.502;2022-09-30T04:30:19;18.67;;;15.73;;
13981;SDS011;7065;50.880;5.502;2022-09-30T04:32:45;21.58;;;17.17;;
13981;SDS011;7065;50.880;5.502;2022-09-30T04:35:11;19.55;;;16.27;;
13981;SDS011;7065;50.880;5.502;2022-09-30T04:37:41;22.45;;;15.27;;
13981;SDS011;7065;50.880;5.502;2022-09-30T04:40:07;16.13;;;13.02;;
13981;SDS011;7065;50.880;5.502;2022-09-30T04:42:35;15.15;;;13.32;;
13981;SDS011;7065;50.880;5.502;2022-09-30T04:45:01;19.88;;;15.93;;
13981;SDS011;7065;50.880;5.502;2022-09-30T04:47:27;22.95;;;18.83;;
13981;SDS011;7065;50.880;5.502;2022-09-30T04:49:54;26.67;;;19.48;;
13981;SDS011;7065;50.880;5.502;2022-09-30T04:52:20;31.20;;;21.60;;
13981;SDS011;7065;50.880;5.502;2022-09-30T04:54:46;30.10;;;22.50;;
13981;SDS011;7065;50.880;5.502;2022-09-30T04:57:12;31.05;;;21.20;;
13981;SDS011;7065;50.880;5.502;2022-09-30T04:59:38;28.90;;;21.52;;
13981;SDS011;7065;50.880;5.502;2022-09-30T05:02:04;29.63;;;21.55;;
13981;SDS011;7065;50.880;5.502;2022-09-30T05:04:29;24.17;;;19.23;;
13981;SDS011;7065;50.880;5.502;2022-09-30T05:06:57;26.08;;;18.60;;
13981;SDS011;7065;50.880;5.502;2022-09-30T05:09:25;25.25;;;19.20;;
13981;SDS011;7065;50.880;5.502;2022-09-30T05:11:51;25.88;;;19.25;;
13981;SDS011;7065;50.880;5.502;2022-09-30T05:14:17;25.90;;;18.80;;
13981;SDS011;7065;50.880;5.502;2022-09-30T05:16:42;25.90;;;18.85;;
13981;SDS011;7065;50.880;5.502;2022-09-30T05:19:09;24.90;;;19.38;;
13981;SDS011;7065;50.880;5.502;2022-09-30T05:21:34;26.25;;;20.20;;
13981;SDS011;7065;50.880;5.502;2022-09-30T05:24:00;24.05;;;18.58;;
13981;SDS011;7065;50.880;5.502;2022-09-30T05:26:26;22.83;;;17.60;;
13981;SDS011;7065;50.880;5.502;2022-09-30T05:28:52;18.83;;;15.23;;
13981;SDS011;7065;50.880;5.502;2022-09-30T05:31:18;18.35;;;15.27;;
13981;SDS011;7065;50.880;5.502;2022-09-30T05:33:47;16.92;;;14.77;;
13981;SDS011;7065;50.880;5.502;2022-09-30T05:36:13;21.15;;;16.42;;
13981;SDS011;7065;50.880;5.502;2022-09-30T05:38:40;26.38;;;18.40;;
13981;SDS011;7065;50.880;5.502;2022-09-30T05:41:10;24.85;;;19.20;;
13981;SDS011;7065;50.880;5.502;2022-09-30T05:43:38;26.90;;;20.48;;
13981;SDS011;7065;50.880;5.502;2022-09-30T05:46:05;31.65;;;19.85;;
13981;SDS011;7065;50.880;5.502;2022-09-30T05:48:31;30.38;;;20.13;;
13981;SDS011;7065;50.880;5.502;2022-09-30T05:50:57;28.52;;;22.65;;
13981;SDS011;7065;50.880;5.502;2022-09-30T05:53:25;32.65;;;21.85;;
13981;SDS011;7065;50.880;5.502;2022-09-30T05:55:52;31.42;;;21.95;;
13981;SDS011;7065;50.880;5.502;2022-09-30T05:58:18;25.30;;;19.80;;
13981;SDS011;7065;50.880;5.502;2022-09-30T06:00:45;30.13;;;20.85;;
13981;SDS011;7065;50.880;5.502;2022-09-30T06:03:12;28.90;;;20.98;;
13981;SDS011;7065;50.880;5.502;2022-09-30T06:08:12;28.83;;;20.75;;
13981;SDS011;7065;50.880;5.502;2022-09-30T06:10:39;26.27;;;20.08;;
13981;SDS011;7065;50.880;5.502;2022-09-30T06:13:06;30.52;;;19.98;;
13981;SDS011;7065;50.880;5.502;2022-09-30T06:15:32;27.27;;;20.02;;
13981;SDS011;7065;50.880;5.502;2022-09-30T06:17:58;27.73;;;20.67;;
13981;SDS011;7065;50.880;5.502;2022-09-30T06:20:24;27.77;;;20.60;;
13981;SDS011;7065;50.880;5.502;2022-09-30T06:22:50;31.17;;;23.08;;
13981;SDS011;7065;50.880;5.502;2022-09-30T06:25:15;32.58;;;23.67;;
13981;SDS011;7065;50.880;5.502;2022-09-30T06:27:44;32.20;;;23.67;;
13981;SDS011;7065;50.880;5.502;2022-09-30T06:30:14;33.28;;;23.80;;
13981;SDS011;7065;50.880;5.502;2022-09-30T06:32:40;31.63;;;23.75;;
13981;SDS011;7065;50.880;5.502;2022-09-30T06:35:06;31.20;;;22.77;;
13981;SDS011;7065;50.880;5.502;2022-09-30T06:37:32;40.95;;;26.33;;
13981;SDS011;7065;50.880;5.502;2022-09-30T06:40:01;31.67;;;22.63;;
13981;SDS011;7065;50.880;5.502;2022-09-30T06:42:28;27.15;;;20.60;;
13981;SDS011;7065;50.880;5.502;2022-09-30T06:44:54;30.70;;;21.77;;
13981;SDS011;7065;50.880;5.502;2022-09-30T06:47:20;37.70;;;25.65;;
13981;SDS011;7065;50.880;5.502;2022-09-30T06:49:46;37.50;;;25.92;;
13981;SDS011;7065;50.880;5.502;2022-09-30T06:52:11;42.28;;;28.50;;
13981;SDS011;7065;50.880;5.502;2022-09-30T06:54:37;38.90;;;26.63;;
13981;SDS011;7065;50.880;5.502;2022-09-30T06:57:08;39.10;;;26.38;;
13981;SDS011;7065;50.880;5.502;2022-09-30T06:59:33;37.90;;;25.40;;
13981;SDS011;7065;50.880;5.502;2022-09-30T07:01:59;39.80;;;26.95;;
13981;SDS011;7065;50.880;5.502;2022-09-30T07:04:25;34.55;;;24.88;;
13981;SDS011;7065;50.880;5.502;2022-09-30T07:06:51;37.80;;;26.10;;
13981;SDS011;7065;50.880;5.502;2022-09-30T07:09:17;45.00;;;29.33;;
13981;SDS011;7065;50.880;5.502;2022-09-30T07:11:43;48.78;;;32.88;;
13981;SDS011;7065;50.880;5.502;2022-09-30T07:14:08;57.35;;;33.92;;
13981;SDS011;7065;50.880;5.502;2022-09-30T07:16:37;56.00;;;33.78;;
13981;SDS011;7065;50.880;5.502;2022-09-30T07:19:03;46.20;;;32.70;;
13981;SDS011;7065;50.880;5.502;2022-09-30T07:21:30;55.05;;;34.00;;
13981;SDS011;7065;50.880;5.502;2022-09-30T07:23:56;50.78;;;33.05;;
13981;SDS011;7065;50.880;5.502;2022-09-30T07:26:24;50.05;;;32.53;;
13981;SDS011;7065;50.880;5.502;2022-09-30T07:28:50;62.65;;;37.58;;
13981;SDS011;7065;50.880;5.502;2022-09-30T07:31:20;57.92;;;38.13;;
13981;SDS011;7065;50.880;5.502;2022-09-30T07:33:48;61.55;;;40.65;;
13981;SDS011;7065;50.880;5.502;2022-09-30T07:36:19;61.17;;;38.70;;
13981;SDS011;7065;50.880;5.502;2022-09-30T07:38:50;59.53;;;37.85;;
13981;SDS011;7065;50.880;5.502;2022-09-30T07:41:18;63.45;;;42.03;;
13981;SDS011;7065;50.880;5.502;2022-09-30T07:43:52;66.15;;;40.78;;
13981;SDS011;7065;50.880;5.502;2022-09-30T07:46:22;64.38;;;42.40;;
13981;SDS011;7065;50.880;5.502;2022-09-30T07:48:50;67.13;;;43.25;;
13981;SDS011;7065;50.880;5.502;2022-09-30T07:51:21;68.05;;;40.85;;
13981;SDS011;7065;50.880;5.502;2022-09-30T07:53:54;64.45;;;39.78;;
13981;SDS011;7065;50.880;5.502;2022-09-30T07:56:22;73.68;;;44.42;;
13981;SDS011;7065;50.880;5.502;2022-09-30T07:58:52;75.32;;;44.08;;
13981;SDS011;7065;50.880;5.502;2022-09-30T08:01:19;73.10;;;44.65;;
13981;SDS011;7065;50.880;5.502;2022-09-30T08:03:45;78.47;;;46.80;;
13981;SDS011;7065;50.880;5.502;2022-09-30T08:06:15;74.80;;;44.78;;
13981;SDS011;7065;50.880;5.502;2022-09-30T08:08:42;70.97;;;42.00;;
13981;SDS011;7065;50.880;5.502;2022-09-30T08:11:10;72.00;;;45.25;;
13981;SDS011;7065;50.880;5.502;2022-09-30T08:13:38;74.40;;;44.33;;
13981;SDS011;7065;50.880;5.502;2022-09-30T08:16:04;69.07;;;43.85;;
13981;SDS011;7065;50.880;5.502;2022-09-30T08:18:30;65.35;;;42.03;;
13981;SDS011;7065;50.880;5.502;2022-09-30T08:20:56;64.30;;;39.95;;
13981;SDS011;7065;50.880;5.502;2022-09-30T08:23:27;62.95;;;39.78;;
13981;SDS011;7065;50.880;5.502;2022-09-30T08:25:59;61.08;;;40.05;;
13981;SDS011;7065;50.880;5.502;2022-09-30T08:28:26;64.20;;;39.83;;
13981;SDS011;7065;50.880;5.502;2022-09-30T08:30:55;58.58;;;38.10;;
13981;SDS011;7065;50.880;5.502;2022-09-30T08:33:26;58.90;;;37.55;;
13981;SDS011;7065;50.880;5.502;2022-09-30T08:35:52;57.55;;;38.45;;
13981;SDS011;7065;50.880;5.502;2022-09-30T08:38:17;55.85;;;37.92;;
13981;SDS011;7065;50.880;5.502;2022-09-30T08:40:51;53.75;;;35.47;;
13981;SDS011;7065;50.880;5.502;2022-09-30T08:43:44;56.92;;;36.78;;
13981;SDS011;7065;50.880;5.502;2022-09-30T08:46:47;54.72;;;35.55;;
13981;SDS011;7065;50.880;5.502;2022-09-30T08:52:18;45.65;;;31.83;;
13981;SDS011;7065;50.880;5.502;2022-09-30T08:54:49;46.40;;;33.80;;
13981;SDS011;7065;50.880;5.502;2022-09-30T08:57:18;44.92;;;31.70;;
13981;SDS011;7065;50.880;5.502;2022-09-30T08:59:45;47.72;;;31.80;;
13981;SDS011;7065;50.880;5.502;2022-09-30T09:02:21;44.63;;;31.23;;
13981;SDS011;7065;50.880;5.502;2022-09-30T09:04:51;40.28;;;28.88;;
13981;SDS011;7065;50.880;5.502;2022-09-30T09:12:51;36.35;;;26.25;;
13981;SDS011;7065;50.880;5.502;2022-09-30T09:18:05;29.23;;;23.30;;
13981;SDS011;7065;50.880;5.502;2022-09-30T09:20:59;33.22;;;23.42;;
13981;SDS011;7065;50.880;5.502;2022-09-30T09:23:37;26.67;;;20.40;;
13981;SDS011;7065;50.880;5.502;2022-09-30T09:26:03;25.63;;;19.75;;
13981;SDS011;7065;50.880;5.502;2022-09-30T09:31:07;23.10;;;19.20;;
13981;SDS011;7065;50.880;5.502;2022-09-30T09:33:39;31.13;;;21.98;;
13981;SDS011;7065;50.880;5.502;2022-09-30T09:36:09;25.15;;;20.40;;
13981;SDS011;7065;50.880;5.502;2022-09-30T09:41:51;24.88;;;19.30;;
13981;SDS011;7065;50.880;5.502;2022-09-30T09:47:09;20.70;;;16.58;;
13981;SDS011;7065;50.880;5.502;2022-09-30T09:49:45;21.40;;;16.02;;
13981;SDS011;7065;50.880;5.502;2022-09-30T09:55:14;18.33;;;14.55;;
13981;SDS011;7065;50.880;5.502;2022-09-30T09:57:43;21.00;;;16.88;;
13981;SDS011;7065;50.880;5.502;2022-09-30T10:00:10;16.38;;;14.25;;
13981;SDS011;7065;50.880;5.502;2022-09-30T10:03:09;19.20;;;15.20;;
13981;SDS011;7065;50.880;5.502;2022-09-30T10:05:58;17.63;;;14.10;;
13981;SDS011;7065;50.880;5.502;2022-09-30T10:08:35;16.25;;;13.65;;
13981;SDS011;7065;50.880;5.502;2022-09-30T10:11:21;15.40;;;13.63;;
13981;SDS011;7065;50.880;5.502;2022-09-30T10:13:49;16.40;;;11.82;;
13981;SDS011;7065;50.880;5.502;2022-09-30T10:16:27;10.25;;;8.95;;
13981;SDS011;7065;50.880;5.502;2022-09-30T10:18:59;14.25;;;9.43;;
13981;SDS011;7065;50.880;5.502;2022-09-30T10:21:28;10.57;;;7.10;;
13981;SDS011;7065;50.880;5.502;2022-09-30T10:23:54;11.93;;;6.97;;
13981;SDS011;7065;50.880;5.502;2022-09-30T10:26:22;9.65;;;7.63;;
13981;SDS011;7065;50.880;5.502;2022-09-30T10:28:51;9.73;;;6.55;;
13981;SDS011;7065;50.880;5.502;2022-09-30T10:31:38;7.72;;;5.80;;
13981;SDS011;7065;50.880;5.502;2022-09-30T10:36:38;6.38;;;4.72;;
13981;SDS011;7065;50.880;5.502;2022-09-30T10:39:14;8.10;;;5.88;;
13981;SDS011;7065;50.880;5.502;2022-09-30T10:41:48;7.65;;;4.65;;
13981;SDS011;7065;50.880;5.502;2022-09-30T10:44:16;7.35;;;5.22;;
13981;SDS011;7065;50.880;5.502;2022-09-30T10:46:45;8.75;;;5.82;;
13981;SDS011;7065;50.880;5.502;2022-09-30T10:49:27;5.82;;;4.93;;
13981;SDS011;7065;50.880;5.502;2022-09-30T10:51:56;6.80;;;4.47;;
13981;SDS011;7065;50.880;5.502;2022-09-30T10:59:53;5.95;;;4.10;;
13981;SDS011;7065;50.880;5.502;2022-09-30T11:02:48;4.45;;;3.45;;
13981;SDS011;7065;50.880;5.502;2022-09-30T11:05:37;3.65;;;3.30;;
13981;SDS011;7065;50.880;5.502;2022-09-30T11:10:40;4.68;;;4.00;;
13981;SDS011;7065;50.880;5.502;2022-09-30T11:15:57;6.68;;;4.63;;
13981;SDS011;7065;50.880;5.502;2022-09-30T11:21:32;7.75;;;5.40;;
13981;SDS011;7065;50.880;5.502;2022-09-30T11:26:56;6.28;;;4.68;;
13981;SDS011;7065;50.880;5.502;2022-09-30T11:32:36;5.10;;;3.72;;
13981;SDS011;7065;50.880;5.502;2022-09-30T11:35:20;5.82;;;4.25;;
13981;SDS011;7065;50.880;5.502;2022-09-30T11:41:08;6.15;;;4.63;;
13981;SDS011;7065;50.880;5.502;2022-09-30T11:46:42;7.22;;;3.20;;
13981;SDS011;7065;50.880;5.502;2022-09-30T11:49:26;5.28;;;3.25;;
13981;SDS011;7065;50.880;5.502;2022-09-30T11:52:24;5.82;;;2.65;;
13981;SDS011;7065;50.880;5.502;2022-09-30T11:58:04;1.73;;;1.63;;
13981;SDS011;7065;50.880;5.502;2022-09-30T12:00:37;2.97;;;1.80;;
13981;SDS011;7065;50.880;5.502;2022-09-30T12:03:14;2.30;;;1.60;;
13981;SDS011;7065;50.880;5.502;2022-09-30T12:08:21;4.00;;;1.85;;
13981;SDS011;7065;50.880;5.502;2022-09-30T12:13:35;2.65;;;1.77;;
13981;SDS011;7065;50.880;5.502;2022-09-30T12:16:08;1.55;;;1.40;;
13981;SDS011;7065;50.880;5.502;2022-09-30T12:18:41;1.95;;;1.25;;
13981;SDS011;7065;50.880;5.502;2022-09-30T12:23:48;2.72;;;1.40;;
13981;SDS011;7065;50.880;5.502;2022-09-30T12:26:22;2.40;;;1.30;;
13981;SDS011;7065;50.880;5.502;2022-09-30T12:46:44;1.95;;;1.27;;
13981;SDS011;7065;50.880;5.502;2022-09-30T12:49:21;1.48;;;1.38;;
13981;SDS011;7065;50.880;5.502;2022-09-30T12:51:50;1.80;;;1.00;;
13981;SDS011;7065;50.880;5.502;2022-09-30T12:54:21;1.52;;;0.82;;
13981;SDS011;7065;50.880;5.502;2022-09-30T12:57:08;1.20;;;1.10;;
13981;SDS011;7065;50.880;5.502;2022-09-30T12:59:35;1.92;;;1.00;;
13981;SDS011;7065;50.880;5.502;2022-09-30T13:02:20;2.00;;;0.60;;
13981;SDS011;7065;50.880;5.502;2022-09-30T13:04:54;2.25;;;1.10;;
13981;SDS011;7065;50.880;5.502;2022-09-30T13:10:29;0.88;;;0.80;;
13981;SDS011;7065;50.880;5.502;2022-09-30T13:18:04;2.00;;;1.00;;
13981;SDS011;7065;50.880;5.502;2022-09-30T13:23:39;1.45;;;1.00;;
13981;SDS011;7065;50.880;5.502;2022-09-30T13:31:28;1.45;;;0.90;;
13981;SDS011;7065;50.880;5.502;2022-09-30T13:36:31;3.10;;;1.00;;
13981;SDS011;7065;50.880;5.502;2022-09-30T13:41:46;1.70;;;1.50;;
13981;SDS011;7065;50.880;5.502;2022-09-30T13:44:22;1.77;;;1.33;;
13981;SDS011;7065;50.880;5.502;2022-09-30T13:47:12;4.00;;;1.20;;
13981;SDS011;7065;50.880;5.502;2022-09-30T13:49:48;2.28;;;1.30;;
13981;SDS011;7065;50.880;5.502;2022-09-30T13:52:32;3.30;;;1.50;;
13981;SDS011;7065;50.880;5.502;2022-09-30T13:55:05;1.77;;;1.45;;
13981;SDS011;7065;50.880;5.502;2022-09-30T14:00:44;2.38;;;1.42;;
13981;SDS011;7065;50.880;5.502;2022-09-30T14:11:22;1.30;;;1.20;;
13981;SDS011;7065;50.880;5.502;2022-09-30T14:20:06;2.30;;;1.90;;
13981;SDS011;7065;50.880;5.502;2022-09-30T14:22:38;2.08;;;1.70;;
13981;SDS011;7065;50.880;5.502;2022-09-30T14:25:16;2.25;;;1.60;;
13981;SDS011;7065;50.880;5.502;2022-09-30T14:28:00;1.90;;;1.75;;
13981;SDS011;7065;50.880;5.502;2022-09-30T14:30:36;3.15;;;2.05;;
13981;SDS011;7065;50.880;5.502;2022-09-30T14:33:08;3.38;;;2.28;;
13981;SDS011;7065;50.880;5.502;2022-09-30T14:35:41;2.67;;;2.47;;
13981;SDS011;7065;50.880;5.502;2022-09-30T14:40:51;3.40;;;2.58;;
13981;SDS011;7065;50.880;5.502;2022-09-30T14:43:23;3.13;;;2.30;;
13981;SDS011;7065;50.880;5.502;2022-09-30T14:45:56;2.38;;;1.80;;
13981;SDS011;7065;50.880;5.502;2022-09-30T14:48:26;2.28;;;1.98;;
13981;SDS011;7065;50.880;5.502;2022-09-30T14:55:59;1.65;;;1.50;;
13981;SDS011;7065;50.880;5.502;2022-09-30T14:58:29;4.57;;;1.98;;
13981;SDS011;7065;50.880;5.502;2022-09-30T15:01:09;2.58;;;1.90;;
13981;SDS011;7065;50.880;5.502;2022-09-30T15:03:42;2.22;;;2.03;;
13981;SDS011;7065;50.880;5.502;2022-09-30T15:06:17;2.70;;;2.10;;
13981;SDS011;7065;50.880;5.502;2022-09-30T15:08:48;2.63;;;1.55;;
13981;SDS011;7065;50.880;5.502;2022-09-30T15:11:16;1.48;;;1.27;;
13981;SDS011;7065;50.880;5.502;2022-09-30T15:13:44;3.60;;;1.60;;
13981;SDS011;7065;50.880;5.502;2022-09-30T15:16:23;2.17;;;1.40;;
13981;SDS011;7065;50.880;5.502;2022-09-30T15:18:50;1.73;;;1.38;;
13981;SDS011;7065;50.880;5.502;2022-09-30T15:21:17;1.88;;;1.20;;
13981;SDS011;7065;50.880;5.502;2022-09-30T15:23:45;2.00;;;1.27;;
13981;SDS011;7065;50.880;5.502;2022-09-30T15:26:17;1.23;;;1.10;;
13981;SDS011;7065;50.880;5.502;2022-09-30T15:28:45;1.58;;;1.20;;
13981;SDS011;7065;50.880;5.502;2022-09-30T15:31:16;1.88;;;1.40;;
13981;SDS011;7065;50.880;5.502;2022-09-30T15:33:47;1.00;;;0.85;;
13981;SDS011;7065;50.880;5.502;2022-09-30T15:36:13;1.77;;;0.95;;
13981;SDS011;7065;50.880;5.502;2022-09-30T15:38:49;2.10;;;0.80;;
13981;SDS011;7065;50.880;5.502;2022-09-30T15:41:16;1.20;;;1.00;;
13981;SDS011;7065;50.880;5.502;2022-09-30T15:46:26;1.60;;;1.10;;
13981;SDS011;7065;50.880;5.502;2022-09-30T15:49:00;1.23;;;0.95;;
13981;SDS011;7065;50.880;5.502;2022-09-30T15:56:56;1.00;;;0.80;;
13981;SDS011;7065;50.880;5.502;2022-09-30T16:02:22;1.20;;;0.90;;
13981;SDS011;7065;50.880;5.502;2022-09-30T16:04:50;0.60;;;0.60;;
13981;SDS011;7065;50.880;5.502;2022-09-30T16:07:17;0.73;;;0.60;;
13981;SDS011;7065;50.880;5.502;2022-09-30T16:09:49;1.00;;;0.90;;
13981;SDS011;7065;50.880;5.502;2022-09-30T16:12:16;0.98;;;0.55;;
13981;SDS011;7065;50.880;5.502;2022-09-30T16:14:51;1.40;;;0.70;;
13981;SDS011;7065;50.880;5.502;2022-09-30T16:17:25;0.93;;;0.60;;
13981;SDS011;7065;50.880;5.502;2022-09-30T16:19:57;2.08;;;0.90;;
13981;SDS011;7065;50.880;5.502;2022-09-30T16:27:58;0.88;;;0.73;;
13981;SDS011;7065;50.880;5.502;2022-09-30T16:30:38;1.35;;;0.70;;
13981;SDS011;7065;50.880;5.502;2022-09-30T16:33:11;1.67;;;0.88;;
13981;SDS011;7065;50.880;5.502;2022-09-30T16:35:39;1.38;;;0.85;;
13981;SDS011;7065;50.880;5.502;2022-09-30T16:38:06;2.17;;;1.15;;
13981;SDS011;7065;50.880;5.502;2022-09-30T16:40:35;2.10;;;1.20;;
13981;SDS011;7065;50.880;5.502;2022-09-30T16:43:01;1.33;;;0.80;;
13981;SDS011;7065;50.880;5.502;2022-09-30T16:45:29;1.70;;;0.80;;
13981;SDS011;7065;50.880;5.502;2022-09-30T16:47:55;1.70;;;0.95;;
13981;SDS011;7065;50.880;5.502;2022-09-30T16:53:07;1.25;;;0.82;;
13981;SDS011;7065;50.880;5.502;2022-09-30T16:55:37;2.83;;;1.00;;
13981;SDS011;7065;50.880;5.502;2022-09-30T16:58:03;1.10;;;0.80;;
13981;SDS011;7065;50.880;5.502;2022-09-30T17:00:29;1.17;;;1.08;;
13981;SDS011;7065;50.880;5.502;2022-09-30T17:02:56;1.42;;;0.85;;
13981;SDS011;7065;50.880;5.502;2022-09-30T17:05:23;1.77;;;0.98;;
13981;SDS011;7065;50.880;5.502;2022-09-30T17:07:53;1.33;;;1.20;;
13981;SDS011;7065;50.880;5.502;2022-09-30T17:10:23;2.15;;;1.10;;
13981;SDS011;7065;50.880;5.502;2022-09-30T17:12:49;1.50;;;1.00;;
13981;SDS011;7065;50.880;5.502;2022-09-30T17:15:18;1.30;;;1.05;;
13981;SDS011;7065;50.880;5.502;2022-09-30T17:17:44;1.95;;;1.10;;
13981;SDS011;7065;50.880;5.502;2022-09-30T17:20:10;1.33;;;1.00;;
13981;SDS011;7065;50.880;5.502;2022-09-30T17:22:37;1.27;;;1.17;;
13981;SDS011;7065;50.880;5.502;2022-09-30T17:25:03;2.53;;;1.10;;
13981;SDS011;7065;50.880;5.502;2022-09-30T17:27:29;1.63;;;1.48;;
13981;SDS011;7065;50.880;5.502;2022-09-30T17:29:55;2.97;;;1.50;;
13981;SDS011;7065;50.880;5.502;2022-09-30T17:32:21;1.52;;;1.38;;
13981;SDS011;7065;50.880;5.502;2022-09-30T17:34:47;2.72;;;1.85;;
13981;SDS011;7065;50.880;5.502;2022-09-30T17:37:13;2.63;;;1.90;;
13981;SDS011;7065;50.880;5.502;2022-09-30T17:39:38;2.20;;;1.75;;
13981;SDS011;7065;50.880;5.502;2022-09-30T17:42:05;6.32;;;3.03;;
13981;SDS011;7065;50.880;5.502;2022-09-30T17:44:54;3.33;;;2.55;;
13981;SDS011;7065;50.880;5.502;2022-09-30T17:47:19;3.90;;;2.25;;
13981;SDS011;7065;50.880;5.502;2022-09-30T17:49:46;4.28;;;2.22;;
13981;SDS011;7065;50.880;5.502;2022-09-30T17:52:12;4.53;;;2.67;;
13981;SDS011;7065;50.880;5.502;2022-09-30T17:54:38;4.60;;;2.72;;
13981;SDS011;7065;50.880;5.502;2022-09-30T17:57:04;4.03;;;2.55;;
13981;SDS011;7065;50.880;5.502;2022-09-30T17:59:30;5.53;;;2.67;;
13981;SDS011;7065;50.880;5.502;2022-09-30T18:01:56;3.33;;;2.72;;
13981;SDS011;7065;50.880;5.502;2022-09-30T18:04:22;2.58;;;2.35;;
13981;SDS011;7065;50.880;5.502;2022-09-30T18:06:50;2.15;;;1.80;;
13981;SDS011;7065;50.880;5.502;2022-09-30T18:09:19;2.15;;;1.95;;
13981;SDS011;7065;50.880;5.502;2022-09-30T18:11:45;3.83;;;2.10;;
13981;SDS011;7065;50.880;5.502;2022-09-30T18:14:11;3.70;;;2.30;;
13981;SDS011;7065;50.880;5.502;2022-09-30T18:16:37;3.38;;;2.20;;
13981;SDS011;7065;50.880;5.502;2022-09-30T18:19:04;2.55;;;2.28;;
13981;SDS011;7065;50.880;5.502;2022-09-30T18:21:31;3.20;;;2.55;;
13981;SDS011;7065;50.880;5.502;2022-09-30T18:23:58;2.53;;;2.10;;
13981;SDS011;7065;50.880;5.502;2022-09-30T18:26:25;4.53;;;2.33;;
13981;SDS011;7065;50.880;5.502;2022-09-30T18:28:53;2.67;;;2.15;;
13981;SDS011;7065;50.880;5.502;2022-09-30T18:31:24;2.83;;;1.88;;